Yang Zi Jiang 015 — V7UE5 — position and weather

sailwx.info

Track history (hours):
 
Tides and Currents Weather Stations Pressure Air Temp Water Temp Dewpoint Dewpoint Depression Visibility Wind Speed Wind Dir Waves Ship Positions

Yang Zi Jiang 015

Last reported at 2018-Jan-12 07:33 UTC. Time now 2018-May-26 07:46 UTC.
Position N 32°01' E 120°23'.
Warning: this ship's position is months out of date.

Length 200 m; draft 6 m.

Type: Ship. MMSI: 538007765.

Date/timePositionNaut miles runAvg speedWind from/ knotsBaromVisibWave heightAir tempDewpointWater temp
2018-Jan-12 07:33N 32°01' E 120°23'0 7.0
2018-Jan-12 07:29N 32°01' E 120°24'5 8.7
2018-Jan-12 06:54N 32°02' E 120°29'4 9.8
2018-Jan-12 06:29N 32°01' E 120°34'2910.0
2018-Jan-12 03:34N 31°46' E 121°04'114.6
2018-Jan-12 03:30N 31°45' E 121°05'713.3
2018-Jan-12 03:00N 31°41' E 121°10'714.2
2018-Jan-12 02:30N 31°37' E 121°17'713.1
2018-Jan-12 02:00N 31°32' E 121°22'611.8
2018-Jan-12 01:31N 31°28' E 121°27'611.0
2018-Jan-12 01:00N 31°25' E 121°32'13 9.2
2018-Jan-11 23:37N 31°17' E 121°44'110.1
2018-Jan-11 23:29N 31°16' E 121°45'713.8
2018-Jan-11 23:00N 31°11' E 121°51'713.3
2018-Jan-11 22:30N 31°07' E 121°57'4 8.4
2018-Jan-11 22:00N 31°05' E 122°01'510.5
2018-Jan-11 21:30N 31°04' E 122°07'5 9.7
2018-Jan-11 21:00N 31°03' E 122°13'611.1
2018-Jan-11 20:26N 31°02' E 122°20'611.1
2018-Jan-11 19:56N 31°01' E 122°26'  
2018-Jan-09 06:32N 30°59' E 122°31'011.1
2018-Jan-09 06:30N 30°59' E 122°31'811.6
2018-Jan-09 05:49N 31°01' E 122°22'411.5
2018-Jan-09 05:29N 31°02' E 122°17'511.6
2018-Jan-09 05:01N 31°03' E 122°11'612.0
2018-Jan-09 04:30N 31°04' E 122°04'5 9.8
2018-Jan-09 04:01N 31°06' E 121°59'510.2
2018-Jan-09 03:31N 31°08' E 121°54'5 9.0
2018-Jan-09 02:59N 31°12' E 121°50'31 4.8
2018-Jan-08 20:31N 31°32' E 121°23'0 0.0
2018-Jan-08 20:01N 31°32' E 121°23'0 0.1
2018-Jan-08 19:30N 31°32' E 121°23'0 0.0
2018-Jan-08 19:00N 31°32' E 121°23'0 0.0
2018-Jan-08 18:30N 31°32' E 121°23'0 0.0
2018-Jan-08 18:00N 31°32' E 121°23'0 0.0
2018-Jan-08 17:30N 31°32' E 121°23'0 0.0
2018-Jan-08 17:01N 31°32' E 121°23'0 0.0
2018-Jan-08 16:30N 31°32' E 121°23'0 0.0
2018-Jan-08 16:00N 31°32' E 121°23'0 0.0
2018-Jan-08 15:30N 31°32' E 121°23'0 0.0
2018-Jan-08 15:00N 31°32' E 121°23'0 0.0
2018-Jan-08 14:30N 31°32' E 121°23'0 0.0
2018-Jan-08 14:00N 31°32' E 121°23'0 0.0
2018-Jan-08 13:30N 31°32' E 121°23'0 0.0
2018-Jan-08 13:00N 31°32' E 121°23'0 0.0
2018-Jan-08 12:30N 31°32' E 121°23'0 0.0
2018-Jan-08 12:00N 31°32' E 121°23'0 0.0
2018-Jan-08 11:29N 31°32' E 121°23'0 0.1
2018-Jan-08 10:59N 31°32' E 121°23'0 1.0
2018-Jan-08 10:30N 31°32' E 121°22'3 6.3
2018-Jan-08 10:00N 31°34' E 121°19'4 8.7
2018-Jan-08 09:30N 31°37' E 121°16'4 7.8
2018-Jan-08 09:00N 31°40' E 121°12'  
Track history (hours):
 
Tides and Currents Weather Stations Pressure Air Temp Water Temp Dewpoint Dewpoint Depression Visibility Wind Speed Wind Dir Waves Ship Positions

Yang Zi Jiang 015

Last reported at 2018-Jan-12 07:33 UTC. Time now 2018-May-26 07:46 UTC.
Position N 32°01' E 120°23'.
Warning: this ship's position is months out of date.

Length 200 m; draft 6 m.

Type: Ship. MMSI: 538007765.

Date/timePositionNaut miles runAvg speedWind from/ knotsBaromVisibWave heightAir tempDewpointWater temp
2018-Jan-12 07:33N 32°01' E 120°23'0 7.0
2018-Jan-12 07:29N 32°01' E 120°24'5 8.7
2018-Jan-12 06:54N 32°02' E 120°29'4 9.8
2018-Jan-12 06:29N 32°01' E 120°34'2910.0
2018-Jan-12 03:34N 31°46' E 121°04'114.6
2018-Jan-12 03:30N 31°45' E 121°05'713.3
2018-Jan-12 03:00N 31°41' E 121°10'714.2
2018-Jan-12 02:30N 31°37' E 121°17'713.1
2018-Jan-12 02:00N 31°32' E 121°22'611.8
2018-Jan-12 01:31N 31°28' E 121°27'611.0
2018-Jan-12 01:00N 31°25' E 121°32'13 9.2
2018-Jan-11 23:37N 31°17' E 121°44'110.1
2018-Jan-11 23:29N 31°16' E 121°45'713.8
2018-Jan-11 23:00N 31°11' E 121°51'713.3
2018-Jan-11 22:30N 31°07' E 121°57'4 8.4
2018-Jan-11 22:00N 31°05' E 122°01'510.5
2018-Jan-11 21:30N 31°04' E 122°07'5 9.7
2018-Jan-11 21:00N 31°03' E 122°13'611.1
2018-Jan-11 20:26N 31°02' E 122°20'611.1
2018-Jan-11 19:56N 31°01' E 122°26'  
2018-Jan-09 06:32N 30°59' E 122°31'011.1
2018-Jan-09 06:30N 30°59' E 122°31'811.6
2018-Jan-09 05:49N 31°01' E 122°22'411.5
2018-Jan-09 05:29N 31°02' E 122°17'511.6
2018-Jan-09 05:01N 31°03' E 122°11'612.0
2018-Jan-09 04:30N 31°04' E 122°04'5 9.8
2018-Jan-09 04:01N 31°06' E 121°59'510.2
2018-Jan-09 03:31N 31°08' E 121°54'5 9.0
2018-Jan-09 02:59N 31°12' E 121°50'31 4.8
2018-Jan-08 20:31N 31°32' E 121°23'0 0.0
2018-Jan-08 20:01N 31°32' E 121°23'0 0.1
2018-Jan-08 19:30N 31°32' E 121°23'0 0.0
2018-Jan-08 19:00N 31°32' E 121°23'0 0.0
2018-Jan-08 18:30N 31°32' E 121°23'0 0.0
2018-Jan-08 18:00N 31°32' E 121°23'0 0.0
2018-Jan-08 17:30N 31°32' E 121°23'0 0.0
2018-Jan-08 17:01N 31°32' E 121°23'0 0.0
2018-Jan-08 16:30N 31°32' E 121°23'0 0.0
2018-Jan-08 16:00N 31°32' E 121°23'0 0.0
2018-Jan-08 15:30N 31°32' E 121°23'0 0.0
2018-Jan-08 15:00N 31°32' E 121°23'0 0.0
2018-Jan-08 14:30N 31°32' E 121°23'0 0.0
2018-Jan-08 14:00N 31°32' E 121°23'0 0.0
2018-Jan-08 13:30N 31°32' E 121°23'0 0.0
2018-Jan-08 13:00N 31°32' E 121°23'0 0.0
2018-Jan-08 12:30N 31°32' E 121°23'0 0.0
2018-Jan-08 12:00N 31°32' E 121°23'0 0.0
2018-Jan-08 11:29N 31°32' E 121°23'0 0.1
2018-Jan-08 10:59N 31°32' E 121°23'0 1.0
2018-Jan-08 10:30N 31°32' E 121°22'3 6.3
2018-Jan-08 10:00N 31°34' E 121°19'4 8.7
2018-Jan-08 09:30N 31°37' E 121°16'4 7.8
2018-Jan-08 09:00N 31°40' E 121°12'  

Dump ship's entire track history